Aérodrome :
LOGIN :

S'inscrire | Disclaimer

   EN    FR    IT 

 










Légende :    VFR   VFR Marginal   IFR   IFR Intensif   IFR Très Intensif
Visi : 
Plafond : 
>= 8 km
>= 3000ft
5 à 8 km
1000 à 3000 ft
1500m à 5 km
500 à 1000 ft
800 à 1500m
200 à 500 ft
< 800m
< 200 ft
Symboles :   Orages  Brouillard  Fortes neiges  Fortes précipitations  Vent > 20 kt
SIGMETs :   Divers  Orages  Givrage  Turbulence  Onde Orograph.  Cendres Volcan.






- Altitude de l'aérodrome : 53 ft
- Code IATA : LBC


EDHL - Lübeck

DERNIER METAR :
  • 080550Z 17005KT 130V210 CAVOK M04/M07 Q1040

METARs EXPIRÉS :
  • 080520Z 17004KT 130V210 CAVOK M04/M07 Q1040
  • 080450Z AUTO 16003KT 140V220 9999 // NCD M05/M06 Q1041
  • 080420Z AUTO 07002KT 9999 // NCD M07/M08 Q1041
  • 080350Z AUTO VRB02KT 9000 // NCD M06/M08 Q1041
  • 080320Z AUTO VRB01KT 9999 // NCD M04/M07 Q1041
  • 080250Z AUTO VRB02KT 9999 // NCD M04/M06 Q1041

TAF TAF EDHL
Valide du 08 à 06h jusqu'au 08 à 15h UTC


080520Z 0806/0815 15004KT CAVOK
PROB30
TEMPO 0807/0809 4000 BR



MET'MAP, la Météo Aéronautique d'un coup d'oeil ! - Copyright ORBIFLY Décembre 2007 - Disclaimer

ORBIFLY MET'MAP TEAM :

Programmation & Développement : Alexandra Zaïnal
Sur une idée originale de : Baudouin d'Aumeries
Soutien technique & logistique : Manuel Goepfert
Assistance : Marc-Olivier Méhu




SOURCES & CREDITS :

   NOAA